METAR UND TAF INFORMATION
CYAY 161110Z AUTO 18011KT 5SM -RA BR BKN006 OVC014 11/11 A2981 RMK SLP097

 FLUGHAFENKARTE

 RUNWAY INFORMATION
Runway 10 Runway length 4000 ft Runway width 100 ft
Runway elevation 108 ft Runway displaced threshold 0 ft Runway heading 80
Runway 28 Runway length 4000 ft Runway width 100 ft
Runway elevation 88 ft Runway displaced threshold 0 ft Runway heading 260

 AIRPORT FREQUENCIES
Type ATF Name ATF Frequency 122.3 MHZ
Type AWOS Name AWOS1 Frequency 118.65 MHZ
Type CNTR Name GANDER CNT Frequency 133 MHZ
Type FSS Name RDO Frequency 122.3 MHZ
Type RCO Name HALIFAX RD Frequency 123.275 MHZ
Type RDO Name MF Frequency 122.3 MHZ

 AIRPORT NEAR NAVIGATION AIDS
Type NDB Name St Anthony Frequency 356 KHZ
Type VOR-DME Name St.aAthony nNld Frequency 113700 KHZ